createdAt,value
2018-04-14T00:00:46.385Z,14.35
2018-04-14T00:03:13.944Z,14.37
2018-04-14T00:05:41.483Z,14.40
2018-04-14T00:08:09.051Z,14.42
2018-04-14T00:10:36.598Z,14.47
2018-04-14T00:13:04.175Z,14.51
2018-04-14T00:15:31.723Z,14.52
2018-04-14T00:17:59.277Z,14.49
2018-04-14T00:20:26.837Z,14.46
2018-04-14T00:22:54.396Z,14.44
2018-04-14T00:25:21.924Z,14.44
2018-04-14T00:27:49.479Z,14.42
2018-04-14T00:30:17.008Z,14.40
2018-04-14T00:32:44.544Z,14.38
2018-04-14T00:35:12.127Z,14.37
2018-04-14T00:37:39.679Z,14.37
2018-04-14T00:40:07.220Z,14.36
2018-04-14T00:42:34.794Z,14.36
2018-04-14T00:45:02.327Z,14.34
2018-04-14T00:47:29.867Z,14.36
2018-04-14T00:49:57.421Z,14.35
2018-04-14T00:52:25.099Z,14.35
2018-04-14T00:54:52.664Z,14.38
2018-04-14T00:57:20.244Z,14.38
2018-04-14T00:59:47.903Z,14.39
2018-04-14T01:02:15.495Z,14.37
2018-04-14T01:04:43.050Z,14.36
2018-04-14T01:07:10.610Z,14.38
2018-04-14T01:09:38.177Z,14.32
2018-04-14T01:12:05.740Z,14.35
2018-04-14T01:14:33.285Z,14.32
2018-04-14T01:17:00.907Z,14.30
2018-04-14T01:19:28.673Z,14.25
2018-04-14T01:21:56.252Z,14.19
2018-04-14T01:24:23.886Z,14.17
2018-04-14T01:26:51.549Z,14.13
2018-04-14T01:29:19.176Z,14.05
2018-04-14T01:31:47.340Z,14.03
2018-04-14T01:34:14.919Z,14.01
2018-04-14T01:36:42.987Z,13.99
2018-04-14T01:39:10.551Z,13.97
2018-04-14T01:41:38.494Z,13.97
2018-04-14T01:44:06.089Z,13.98
2018-04-14T01:46:33.982Z,13.99
2018-04-14T01:49:01.559Z,14.02
2018-04-14T01:51:29.248Z,14.02
2018-04-14T01:53:56.823Z,14.03
2018-04-14T01:56:24.361Z,14.03
2018-04-14T01:58:51.951Z,14.04
2018-04-14T02:01:19.508Z,14.06
2018-04-14T02:03:47.209Z,14.10
2018-04-14T02:06:14.763Z,14.07
2018-04-14T02:08:42.424Z,14.07
2018-04-14T02:11:09.965Z,14.08
2018-04-14T02:13:37.611Z,14.13
2018-04-14T02:16:05.216Z,14.19
2018-04-14T02:18:33.392Z,14.24
2018-04-14T02:21:01.090Z,14.25
2018-04-14T02:23:29.014Z,14.23
2018-04-14T02:25:56.643Z,14.26
2018-04-14T02:28:24.573Z,14.25
2018-04-14T02:30:52.150Z,14.25
2018-04-14T02:33:20.058Z,14.20
2018-04-14T02:35:47.646Z,14.12
2018-04-14T02:38:15.195Z,14.08
2018-04-14T02:40:42.822Z,14.02
2018-04-14T02:43:10.357Z,13.97
2018-04-14T02:45:37.930Z,13.91
2018-04-14T02:48:05.498Z,13.87
2018-04-14T02:50:33.071Z,13.85
2018-04-14T02:53:00.616Z,13.81
2018-04-14T02:55:28.256Z,13.77
2018-04-14T02:57:55.836Z,13.68
2018-04-14T03:00:23.436Z,13.66
2018-04-14T03:02:50.998Z,13.62
2018-04-14T03:05:18.597Z,13.58
2018-04-14T03:07:46.171Z,13.54
2018-04-14T03:10:14.551Z,13.45
2018-04-14T03:12:42.289Z,13.44
2018-04-14T03:15:10.357Z,13.39
2018-04-14T03:17:56.005Z,13.39
2018-04-14T03:20:23.587Z,13.35
2018-04-14T03:22:51.161Z,13.30
2018-04-14T03:25:18.758Z,13.27
2018-04-14T03:27:46.311Z,13.24
2018-04-14T03:30:13.865Z,13.21
2018-04-14T03:32:41.400Z,13.18
2018-04-14T03:35:08.991Z,13.15
2018-04-14T03:40:35.228Z,13.11
2018-04-14T03:43:02.772Z,13.10
2018-04-14T03:45:30.832Z,13.14
2018-04-14T03:47:58.399Z,13.16
2018-04-14T03:50:26.338Z,13.22
2018-04-14T03:52:53.946Z,13.25
2018-04-14T03:55:21.675Z,13.25
2018-04-14T03:57:49.241Z,13.29
2018-04-14T04:00:16.772Z,13.32
2018-04-14T04:02:44.469Z,13.30
2018-04-14T04:05:12.027Z,13.26
2018-04-14T04:07:39.612Z,13.28
2018-04-14T04:10:07.169Z,13.29
2018-04-14T04:12:34.745Z,13.28
2018-04-14T04:15:02.305Z,13.32
2018-04-14T04:17:29.929Z,13.33
2018-04-14T04:20:09.278Z,13.31
2018-04-14T04:22:49.661Z,13.31
2018-04-14T04:25:30.284Z,13.30
2018-04-14T04:27:57.839Z,13.31
2018-04-14T04:30:25.417Z,13.36
2018-04-14T04:32:53.059Z,13.31
2018-04-14T04:35:20.994Z,13.26
2018-04-14T04:37:48.643Z,13.31
2018-04-14T04:40:16.611Z,13.39
2018-04-14T04:42:44.720Z,13.34
2018-04-14T04:45:12.816Z,13.38
2018-04-14T04:47:40.363Z,13.34
2018-04-14T04:50:09.164Z,13.30
2018-04-14T04:52:36.899Z,13.25
2018-04-14T04:55:04.483Z,13.22
2018-04-14T04:57:32.510Z,13.21
2018-04-14T05:00:00.304Z,13.23
2018-04-14T05:02:28.741Z,13.18
2018-04-14T05:04:56.360Z,13.16
2018-04-14T05:07:23.905Z,13.13
2018-04-14T05:09:51.483Z,13.17
2018-04-14T05:12:19.034Z,13.21
2018-04-14T05:14:46.789Z,13.12
2018-04-14T05:17:14.389Z,13.12
2018-04-14T05:19:43.067Z,13.08
2018-04-14T05:22:11.158Z,13.02
2018-04-14T05:24:40.100Z,13.08
2018-04-14T05:27:08.147Z,13.02
2018-04-14T05:29:35.733Z,13.01
2018-04-14T05:32:03.637Z,12.99
2018-04-14T05:34:31.360Z,12.99
2018-04-14T05:36:59.372Z,12.99
2018-04-14T05:39:27.049Z,13.00
2018-04-14T05:41:54.610Z,12.99
2018-04-14T05:44:22.749Z,12.95
2018-04-14T05:46:50.305Z,12.98
2018-04-14T05:49:17.873Z,12.98
2018-04-14T05:51:45.433Z,12.95
2018-04-14T05:54:13.570Z,12.92
2018-04-14T05:56:41.172Z,12.93
2018-04-14T05:59:08.990Z,12.98
2018-04-14T06:01:36.561Z,13.02
2018-04-14T06:04:04.458Z,13.08
2018-04-14T06:06:32.026Z,13.05
2018-04-14T06:08:59.614Z,13.05
2018-04-14T06:11:27.159Z,13.12
2018-04-14T06:13:54.710Z,13.15
2018-04-14T06:16:22.270Z,13.23
2018-04-14T06:18:49.827Z,13.32
2018-04-14T06:21:17.389Z,13.41
2018-04-14T06:23:44.936Z,13.50
2018-04-14T06:26:12.524Z,13.51
2018-04-14T06:28:40.085Z,13.49
2018-04-14T06:31:07.667Z,13.55
2018-04-14T06:33:35.232Z,13.51
2018-04-14T06:36:02.790Z,13.59
2018-04-14T06:38:30.377Z,13.60
2018-04-14T06:40:57.929Z,13.67
2018-04-14T06:43:25.450Z,13.73
2018-04-14T06:45:53.031Z,13.85
2018-04-14T06:48:20.604Z,13.92
2018-04-14T06:50:48.165Z,13.98
2018-04-14T06:53:15.728Z,14.00
2018-04-14T06:55:43.294Z,14.06
2018-04-14T06:58:10.835Z,14.15
2018-04-14T07:00:38.369Z,14.25
2018-04-14T07:03:06.010Z,14.24
2018-04-14T07:05:33.600Z,14.26
2018-04-14T07:08:01.162Z,14.33
2018-04-14T07:10:28.715Z,14.42
2018-04-14T07:12:56.288Z,14.42
2018-04-14T07:15:24.584Z,14.45
2018-04-14T07:17:52.125Z,14.53
2018-04-14T07:20:19.895Z,14.50
2018-04-14T07:22:47.444Z,14.50
2018-04-14T07:25:15.519Z,14.53
2018-04-14T07:27:43.100Z,14.55
2018-04-14T07:30:10.967Z,14.49
2018-04-14T07:32:38.539Z,14.52
2018-04-14T07:35:06.498Z,14.56
2018-04-14T07:37:34.068Z,14.56
2018-04-14T07:40:01.645Z,14.53
2018-04-14T07:42:29.202Z,14.62
2018-04-14T07:44:56.743Z,14.72
2018-04-14T07:47:24.355Z,14.79
2018-04-14T07:49:51.925Z,14.84
2018-04-14T07:52:19.472Z,14.97
2018-04-14T07:54:47.006Z,15.06
2018-04-14T07:57:14.572Z,15.03
2018-04-14T07:59:42.131Z,15.02
2018-04-14T08:02:09.732Z,15.13
2018-04-14T08:04:37.305Z,15.24
2018-04-14T08:07:04.879Z,15.21
2018-04-14T08:09:32.428Z,15.17
2018-04-14T08:11:59.995Z,15.29
2018-04-14T08:14:27.548Z,15.37
2018-04-14T08:16:55.095Z,15.56
2018-04-14T08:19:22.672Z,15.67
2018-04-14T08:21:50.238Z,15.66
2018-04-14T08:24:17.801Z,15.82
2018-04-14T08:26:45.370Z,15.79
2018-04-14T08:29:12.920Z,15.91
2018-04-14T08:31:40.468Z,15.95
2018-04-14T08:34:07.995Z,16.02
2018-04-14T08:36:35.518Z,16.14
2018-04-14T08:39:03.116Z,16.28
2018-04-14T08:41:30.671Z,16.31
2018-04-14T08:43:58.230Z,16.44
2018-04-14T08:46:25.774Z,16.59
2018-04-14T08:48:53.338Z,16.68
2018-04-14T08:51:20.957Z,16.80
2018-04-14T08:53:48.515Z,16.82
2018-04-14T08:56:16.147Z,16.94
2018-04-14T08:58:43.676Z,16.75
2018-04-14T09:01:11.278Z,16.67
2018-04-14T09:03:38.827Z,16.34
2018-04-14T09:06:06.384Z,16.44
2018-04-14T09:08:33.960Z,16.47
2018-04-14T09:11:01.509Z,16.50
2018-04-14T09:13:29.054Z,16.42
2018-04-14T09:15:56.659Z,16.54
2018-04-14T09:18:24.250Z,16.57
2018-04-14T09:20:51.791Z,16.55
2018-04-14T09:23:19.606Z,16.64
2018-04-14T09:25:47.184Z,16.54
2018-04-14T09:28:14.726Z,16.67
2018-04-14T09:30:42.295Z,16.90
2018-04-14T09:33:09.839Z,16.85
2018-04-14T09:35:37.514Z,16.68
2018-04-14T09:38:05.086Z,16.77
2018-04-14T09:40:32.638Z,16.58
2018-04-14T09:43:00.187Z,16.48
2018-04-14T09:45:27.845Z,16.56
2018-04-14T09:47:55.368Z,16.68
2018-04-14T09:50:23.005Z,16.73
2018-04-14T09:52:50.564Z,16.90
2018-04-14T09:55:18.154Z,16.91
2018-04-14T09:57:45.689Z,16.97
2018-04-14T10:00:18.959Z,16.95
2018-04-14T10:02:46.521Z,17.04
2018-04-14T10:05:14.097Z,17.23
2018-04-14T10:07:41.669Z,17.37
2018-04-14T10:10:09.686Z,17.28
2018-04-14T10:12:37.221Z,17.00
2018-04-14T10:15:05.199Z,17.06
2018-04-14T10:17:32.885Z,16.94
2018-04-14T10:20:00.635Z,16.85
2018-04-14T10:22:29.149Z,16.79
2018-04-14T10:24:56.707Z,16.62
2018-04-14T10:27:24.472Z,16.61
2018-04-14T10:29:52.019Z,16.50
2018-04-14T10:32:19.590Z,16.44
2018-04-14T10:34:47.125Z,16.54
2018-04-14T10:37:14.724Z,16.64
2018-04-14T10:39:42.288Z,16.83
2018-04-14T10:42:10.266Z,16.93
2018-04-14T10:44:37.802Z,17.14
2018-04-14T10:47:05.897Z,17.39
2018-04-14T10:49:33.479Z,17.40
2018-04-14T10:52:01.366Z,17.52
2018-04-14T10:54:28.926Z,17.70
2018-04-14T10:56:56.476Z,17.76
2018-04-14T10:59:24.053Z,17.80
2018-04-14T11:01:51.602Z,17.56
2018-04-14T11:04:19.173Z,17.63
2018-04-14T11:06:46.741Z,17.64
2018-04-14T11:09:14.281Z,17.57
2018-04-14T11:11:41.803Z,17.66
2018-04-14T11:14:09.350Z,17.65
2018-04-14T11:16:36.958Z,17.49
2018-04-14T11:19:04.541Z,17.33
2018-04-14T11:21:32.362Z,17.48
2018-04-14T11:23:59.920Z,17.68
2018-04-14T11:26:27.452Z,17.72
2018-04-14T11:28:55.025Z,17.82
2018-04-14T11:31:22.588Z,17.81
2018-04-14T11:33:50.293Z,17.86
2018-04-14T11:36:17.873Z,17.78
2018-04-14T11:38:45.451Z,17.71
2018-04-14T11:41:13.012Z,17.77
2018-04-14T11:43:40.568Z,17.88
2018-04-14T11:46:08.119Z,18.03
2018-04-14T11:48:35.717Z,18.15
2018-04-14T11:51:03.272Z,18.25
2018-04-14T11:53:30.876Z,18.37
2018-04-14T11:55:58.428Z,18.53
2018-04-14T11:58:26.018Z,18.67
2018-04-14T12:00:53.571Z,18.60
2018-04-14T12:03:22.208Z,18.67
2018-04-14T12:05:49.761Z,18.53
2018-04-14T12:08:17.816Z,18.67
2018-04-14T12:10:45.349Z,18.81
2018-04-14T12:13:13.227Z,19.29
2018-04-14T12:15:40.793Z,20.06
2018-04-14T12:18:08.698Z,20.94
2018-04-14T12:20:36.252Z,21.52
2018-04-14T12:23:04.062Z,21.93
2018-04-14T12:25:31.620Z,22.00
2018-04-14T12:27:59.171Z,21.68
2018-04-14T12:30:26.773Z,21.76
2018-04-14T12:32:54.318Z,21.87
2018-04-14T12:35:21.879Z,22.66
2018-04-14T12:37:49.542Z,22.61
2018-04-14T12:40:17.141Z,22.33
2018-04-14T12:42:44.686Z,22.36
2018-04-14T12:45:12.295Z,22.66
2018-04-14T12:47:39.862Z,23.33
2018-04-14T12:50:07.518Z,23.59
2018-04-14T12:52:35.025Z,23.59
2018-04-14T12:55:03.205Z,23.61
2018-04-14T12:57:30.774Z,24.00
2018-04-14T12:59:58.820Z,23.37
2018-04-14T13:02:26.361Z,22.78
2018-04-14T13:04:54.339Z,22.53
2018-04-14T13:07:21.871Z,22.60
2018-04-14T13:09:49.837Z,22.23
2018-04-14T13:12:17.412Z,22.11
2018-04-14T13:14:44.945Z,21.94
2018-04-14T13:17:12.504Z,22.63
2018-04-14T13:19:40.053Z,22.89
2018-04-14T13:22:07.692Z,23.28
2018-04-14T13:24:35.231Z,23.31
2018-04-14T13:27:02.799Z,23.19
2018-04-14T13:29:30.323Z,22.94
2018-04-14T13:31:57.895Z,22.89
2018-04-14T13:34:25.453Z,23.02
2018-04-14T13:36:53.045Z,23.13
2018-04-14T13:39:20.597Z,23.68
2018-04-14T13:41:48.204Z,24.09
2018-04-14T13:44:15.730Z,24.28
2018-04-14T13:46:43.315Z,24.49
2018-04-14T13:49:10.843Z,24.22
2018-04-14T13:51:38.463Z,24.59
2018-04-14T13:54:06.020Z,25.14
2018-04-14T13:56:33.576Z,25.26
2018-04-14T13:59:01.135Z,25.60
2018-04-14T14:01:28.716Z,25.49
2018-04-14T14:03:56.276Z,25.70
2018-04-14T14:06:23.837Z,25.70
2018-04-14T14:08:51.436Z,25.52
2018-04-14T14:11:19.035Z,25.58
2018-04-14T14:13:46.576Z,25.43
2018-04-14T14:16:14.119Z,25.41
2018-04-14T14:18:41.659Z,25.06
2018-04-14T14:21:09.302Z,24.74
2018-04-14T14:23:36.874Z,24.81
2018-04-14T14:26:04.428Z,24.86
2018-04-14T14:28:31.994Z,24.50
2018-04-14T14:31:00.128Z,24.18
2018-04-14T14:33:27.675Z,24.20
2018-04-14T14:35:55.313Z,24.15
2018-04-14T14:38:22.804Z,23.91
2018-04-14T14:40:50.365Z,23.30
2018-04-14T14:43:17.903Z,23.03
2018-04-14T14:45:45.430Z,22.88
2018-04-14T14:48:12.997Z,22.99
2018-04-14T14:50:40.547Z,22.95
2018-04-14T14:53:08.107Z,22.79
2018-04-14T14:55:36.161Z,22.61
2018-04-14T14:58:03.714Z,22.48
2018-04-14T15:00:31.756Z,22.32
2018-04-14T15:02:59.318Z,22.32
2018-04-14T15:05:27.204Z,22.20
2018-04-14T15:07:54.777Z,21.99
2018-04-14T15:10:22.357Z,21.90
2018-04-14T15:12:50.919Z,21.85
2018-04-14T15:15:18.465Z,21.74
2018-04-14T15:17:46.022Z,21.81
2018-04-14T15:20:13.579Z,21.88
2018-04-14T15:22:41.107Z,21.95
2018-04-14T15:25:08.740Z,21.91
2018-04-14T15:27:36.283Z,22.03
2018-04-14T15:30:03.840Z,22.09
2018-04-14T15:32:31.422Z,22.16
2018-04-14T15:34:58.983Z,22.17
2018-04-14T15:37:27.167Z,22.17
2018-04-14T15:39:54.724Z,21.98
2018-04-14T15:42:22.746Z,22.04
2018-04-14T15:44:50.307Z,21.90
2018-04-14T15:47:17.980Z,21.78
2018-04-14T15:49:45.524Z,21.71
2018-04-14T15:52:13.077Z,21.61
2018-04-14T15:54:40.665Z,21.37
2018-04-14T15:57:08.207Z,21.27
2018-04-14T15:59:35.757Z,21.19
2018-04-14T16:02:03.301Z,21.13
2018-04-14T16:04:30.906Z,21.13
2018-04-14T16:06:58.472Z,20.99
2018-04-14T16:09:26.101Z,21.13
2018-04-14T16:11:53.682Z,21.08
2018-04-14T16:14:21.285Z,21.09
2018-04-14T16:16:48.811Z,21.09
2018-04-14T16:19:16.447Z,21.13
2018-04-14T16:21:44.046Z,20.94
2018-04-14T16:24:11.672Z,20.74
2018-04-14T16:26:39.206Z,20.67
2018-04-14T16:29:06.783Z,20.67
2018-04-14T16:31:34.378Z,20.48
2018-04-14T16:34:01.997Z,20.44
2018-04-14T16:36:29.532Z,20.48
2018-04-14T16:38:57.635Z,20.49
2018-04-14T16:41:25.195Z,20.48
2018-04-14T16:43:53.306Z,20.44
2018-04-14T16:46:20.851Z,20.37
2018-04-14T16:48:48.715Z,20.41
2018-04-14T16:51:16.262Z,20.38
2018-04-14T16:53:44.223Z,20.35
2018-04-14T16:56:11.777Z,20.38
2018-04-14T16:58:39.314Z,20.29
2018-04-14T17:01:06.891Z,20.30
2018-04-14T17:03:34.437Z,20.15
2018-04-14T17:06:02.030Z,20.18
2018-04-14T17:08:29.607Z,20.15
2018-04-14T17:10:57.166Z,20.17
2018-04-14T17:13:24.708Z,20.14
2018-04-14T17:15:52.269Z,20.04
2018-04-14T17:18:19.798Z,19.95
2018-04-14T17:20:47.383Z,20.04
2018-04-14T17:23:14.929Z,19.96
2018-04-14T17:25:42.599Z,19.90
2018-04-14T17:28:10.152Z,19.86
2018-04-14T17:30:39.159Z,19.83
2018-04-14T17:33:06.694Z,19.81
2018-04-14T17:35:34.651Z,19.69
2018-04-14T17:38:02.228Z,19.68
2018-04-14T17:40:29.981Z,19.66
2018-04-14T17:42:57.513Z,19.58
2018-04-14T17:45:25.054Z,19.59
2018-04-14T17:47:52.592Z,19.51
2018-04-14T17:50:20.146Z,19.41
2018-04-14T17:52:47.708Z,19.44
2018-04-14T17:55:15.305Z,19.43
2018-04-14T17:57:42.869Z,19.45
2018-04-14T18:00:10.397Z,19.40
2018-04-14T18:02:37.941Z,19.42
2018-04-14T18:05:05.493Z,19.40
2018-04-14T18:07:33.022Z,19.35
2018-04-14T18:10:00.562Z,19.38
2018-04-14T18:12:28.114Z,19.24
2018-04-14T18:14:55.750Z,19.21
2018-04-14T18:17:23.360Z,19.23
2018-04-14T18:19:50.874Z,19.20
2018-04-14T18:22:18.437Z,19.18
2018-04-14T18:24:45.965Z,19.13
2018-04-14T18:27:13.529Z,19.12
2018-04-14T18:29:41.083Z,19.05
2018-04-14T18:32:08.657Z,19.03
2018-04-14T18:34:36.194Z,19.02
2018-04-14T18:37:03.778Z,19.01
2018-04-14T18:39:31.316Z,18.97
2018-04-14T18:41:58.883Z,18.95
2018-04-14T18:44:26.426Z,18.91
2018-04-14T18:46:53.971Z,18.91
2018-04-14T18:49:21.535Z,18.90
2018-04-14T18:51:49.076Z,18.89
2018-04-14T18:54:16.631Z,18.87
2018-04-14T18:56:44.210Z,18.79
2018-04-14T18:59:11.739Z,18.84
2018-04-14T19:01:39.289Z,18.76
2018-04-14T19:04:06.837Z,18.61
2018-04-14T19:06:34.439Z,18.61
2018-04-14T19:09:01.960Z,18.59
2018-04-14T19:11:29.527Z,18.57
2018-04-14T19:13:57.083Z,18.48
2018-04-14T19:16:24.655Z,18.47
2018-04-14T19:18:52.200Z,18.46
2018-04-14T19:21:19.739Z,18.44
2018-04-14T19:23:50.223Z,18.38
2018-04-14T19:26:17.781Z,18.36
2018-04-14T19:28:45.361Z,18.30
2018-04-14T19:31:12.890Z,18.25
2018-04-14T19:33:40.460Z,18.28
2018-04-14T19:36:08.018Z,18.27
2018-04-14T19:38:35.605Z,18.26
2018-04-14T19:41:03.155Z,18.24
2018-04-14T19:43:30.725Z,18.20
2018-04-14T19:45:58.272Z,18.18
2018-04-14T19:48:25.865Z,18.20
2018-04-14T19:50:53.400Z,18.18
2018-04-14T19:53:21.571Z,18.15
2018-04-14T19:55:49.091Z,18.14
2018-04-14T19:58:16.793Z,18.17
2018-04-14T20:00:44.337Z,18.15
2018-04-14T20:03:13.025Z,18.10
2018-04-14T20:05:40.606Z,18.06
2018-04-14T20:08:08.711Z,18.03
2018-04-14T20:10:36.266Z,17.99
2018-04-14T20:13:04.471Z,17.95
2018-04-14T20:15:32.029Z,17.91
2018-04-14T20:17:59.666Z,17.89
2018-04-14T20:20:27.229Z,17.85
2018-04-14T20:22:54.772Z,17.83
2018-04-14T20:25:22.407Z,17.82
2018-04-14T20:27:49.953Z,17.77
2018-04-14T20:30:17.527Z,17.73
2018-04-14T20:32:45.080Z,17.74
2018-04-14T20:35:12.669Z,17.67
2018-04-14T20:37:40.204Z,17.67
2018-04-14T20:40:07.757Z,17.63
2018-04-14T20:42:35.289Z,17.62
2018-04-14T20:45:02.874Z,17.58
2018-04-14T20:47:30.404Z,17.59
2018-04-14T20:49:58.011Z,17.57
2018-04-14T20:52:25.583Z,17.55
2018-04-14T20:54:53.778Z,17.52
2018-04-14T20:57:21.369Z,17.46
2018-04-14T20:59:49.490Z,17.47
2018-04-14T21:02:17.053Z,17.45
2018-04-14T21:04:44.951Z,17.42
2018-04-14T21:07:12.576Z,17.41
2018-04-14T21:09:40.396Z,17.38
2018-04-14T21:12:07.981Z,17.32
2018-04-14T21:14:35.515Z,17.32
2018-04-14T21:17:03.061Z,17.32
2018-04-14T21:19:30.588Z,17.31
2018-04-14T21:21:58.131Z,17.34
2018-04-14T21:24:25.731Z,17.32
2018-04-14T21:26:53.324Z,17.28
2018-04-14T21:29:20.846Z,17.28
2018-04-14T21:31:48.455Z,17.24
2018-04-14T21:34:15.987Z,17.24
2018-04-14T21:36:43.579Z,17.24
2018-04-14T21:39:11.130Z,17.23
2018-04-14T21:41:38.710Z,17.22
2018-04-14T21:44:06.250Z,17.22
2018-04-14T21:46:33.830Z,17.19
2018-04-14T21:49:01.378Z,17.13
2018-04-14T21:51:28.930Z,17.18
2018-04-14T21:53:56.471Z,17.19
2018-04-14T21:56:24.065Z,17.18
2018-04-14T21:58:51.591Z,17.18
2018-04-14T22:01:19.161Z,17.19
2018-04-14T22:03:46.700Z,17.17
2018-04-14T22:06:14.347Z,17.15
2018-04-14T22:08:41.914Z,17.16
2018-04-14T22:11:10.137Z,17.10
2018-04-14T22:13:37.729Z,17.13
2018-04-14T22:16:05.806Z,17.13
2018-04-14T22:18:33.371Z,17.10
2018-04-14T22:21:01.252Z,17.10
2018-04-14T22:23:28.811Z,17.10
2018-04-14T22:25:56.699Z,17.04
2018-04-14T22:28:24.274Z,16.99
2018-04-14T22:30:51.795Z,17.01
2018-04-14T22:33:19.451Z,16.99
2018-04-14T22:35:46.990Z,16.98
2018-04-14T22:38:14.577Z,16.93
2018-04-14T22:40:42.165Z,16.93
2018-04-14T22:43:09.789Z,16.91
2018-04-14T22:45:37.310Z,16.89
2018-04-14T22:48:04.850Z,16.90
2018-04-14T22:50:32.400Z,16.89
2018-04-14T22:52:59.972Z,16.86
2018-04-14T22:55:27.529Z,16.83
2018-04-14T22:57:55.105Z,16.76
2018-04-14T23:00:22.648Z,16.80
2018-04-14T23:02:50.219Z,16.72
2018-04-14T23:05:17.758Z,16.67
2018-04-14T23:07:45.330Z,16.62
2018-04-14T23:10:12.885Z,16.56
2018-04-14T23:12:41.140Z,16.53
2018-04-14T23:15:08.675Z,16.42
2018-04-14T23:17:36.743Z,16.43
2018-04-14T23:20:04.315Z,16.37
2018-04-14T23:22:32.197Z,16.33
2018-04-14T23:24:59.811Z,16.26
2018-04-14T23:27:27.630Z,16.25
2018-04-14T23:29:55.239Z,16.12
2018-04-14T23:32:22.804Z,16.10
2018-04-14T23:34:50.385Z,16.00
2018-04-14T23:37:17.937Z,16.00
2018-04-14T23:39:45.485Z,16.06
2018-04-14T23:42:13.041Z,15.90
2018-04-14T23:44:40.604Z,15.86
2018-04-14T23:47:08.160Z,15.79
2018-04-14T23:49:35.739Z,15.73
2018-04-14T23:52:03.270Z,15.67
2018-04-14T23:54:30.830Z,15.66
2018-04-14T23:56:58.357Z,15.71
2018-04-14T23:59:25.981Z,15.75
